createdAt,value
2023-05-09T00:00:15.687Z,5.20
2023-05-09T00:01:15.685Z,4.80
2023-05-09T00:02:15.715Z,6.40
2023-05-09T00:03:15.701Z,4.20
2023-05-09T00:04:15.684Z,4.50
2023-05-09T00:05:15.925Z,7.00
2023-05-09T00:06:15.677Z,5.10
2023-05-09T00:07:15.671Z,5.90
2023-05-09T00:08:15.709Z,5.80
2023-05-09T00:09:15.612Z,5.70
2023-05-09T00:10:15.622Z,4.30
2023-05-09T00:11:15.609Z,5.70
2023-05-09T00:12:15.588Z,3.90
2023-05-09T00:13:15.609Z,5.70
2023-05-09T00:14:15.573Z,5.30
2023-05-09T00:15:15.736Z,4.60
2023-05-09T00:16:15.567Z,4.60
2023-05-09T00:17:15.550Z,6.30
2023-05-09T00:18:15.541Z,5.40
2023-05-09T00:19:15.531Z,6.40
2023-05-09T00:20:15.538Z,4.10
2023-05-09T00:21:15.528Z,6.40
2023-05-09T00:22:15.506Z,5.70
2023-05-09T00:23:15.494Z,5.60
2023-05-09T00:24:15.572Z,4.40
2023-05-09T00:25:15.621Z,5.00
2023-05-09T00:26:15.459Z,5.50
2023-05-09T00:27:15.471Z,4.20
2023-05-09T00:28:15.455Z,6.10
2023-05-09T00:29:15.445Z,5.10
2023-05-09T00:30:15.445Z,4.50
2023-05-09T00:31:15.431Z,5.20
2023-05-09T00:32:15.506Z,6.10
2023-05-09T00:33:15.422Z,4.40
2023-05-09T00:34:15.406Z,6.90
2023-05-09T00:35:15.569Z,7.10
2023-05-09T00:36:15.387Z,6.20
2023-05-09T00:37:15.385Z,5.70
2023-05-09T00:38:15.367Z,4.20
2023-05-09T00:39:15.359Z,4.50
2023-05-09T00:40:15.442Z,4.90
2023-05-09T00:41:15.352Z,5.30
2023-05-09T00:42:15.343Z,6.20
2023-05-09T00:43:15.324Z,5.30
2023-05-09T00:44:15.316Z,3.70
2023-05-09T00:45:15.440Z,5.50
2023-05-09T00:46:15.323Z,4.90
2023-05-09T00:47:15.301Z,4.90
2023-05-09T00:48:15.288Z,4.90
2023-05-09T00:49:15.276Z,5.70
2023-05-09T00:50:15.291Z,5.30
2023-05-09T00:51:15.279Z,6.10
2023-05-09T00:52:15.261Z,5.10
2023-05-09T00:53:15.243Z,5.30
2023-05-09T00:54:15.229Z,4.90
2023-05-09T00:55:15.403Z,4.20
2023-05-09T00:56:15.301Z,5.30
2023-05-09T00:57:15.204Z,5.50
2023-05-09T00:58:15.203Z,4.80
2023-05-09T00:59:16.960Z,6.20
2023-05-09T01:00:15.187Z,6.60
2023-05-09T01:01:15.224Z,5.00
2023-05-09T01:02:15.190Z,3.90
2023-05-09T01:03:15.219Z,6.00
2023-05-09T01:04:15.157Z,5.50
2023-05-09T01:05:15.515Z,6.20
2023-05-09T01:06:15.127Z,4.90
2023-05-09T01:07:15.125Z,5.60
2023-05-09T01:08:15.112Z,4.60
2023-05-09T01:09:15.104Z,4.50
2023-05-09T01:10:15.093Z,5.30
2023-05-09T01:11:15.142Z,6.90
2023-05-09T01:12:15.162Z,5.00
2023-05-09T01:13:15.091Z,6.70
2023-05-09T01:14:15.058Z,4.50
2023-05-09T01:15:15.262Z,7.00
2023-05-09T01:16:15.085Z,7.20
2023-05-09T01:17:15.032Z,4.00
2023-05-09T01:18:15.099Z,5.00
2023-05-09T01:19:15.025Z,4.20
2023-05-09T01:20:15.015Z,5.30
2023-05-09T01:21:15.005Z,5.30
2023-05-09T01:22:14.991Z,5.50
2023-05-09T01:23:14.989Z,6.40
2023-05-09T01:24:14.971Z,5.10
2023-05-09T01:25:15.114Z,5.10
2023-05-09T01:26:14.960Z,5.80
2023-05-09T01:27:14.949Z,4.70
2023-05-09T01:28:15.027Z,4.60
2023-05-09T01:29:14.936Z,5.40
2023-05-09T01:30:14.932Z,5.50
2023-05-09T01:31:14.926Z,4.90
2023-05-09T01:32:14.905Z,6.50
2023-05-09T01:33:14.897Z,3.60
2023-05-09T01:34:14.905Z,5.30
2023-05-09T01:35:15.057Z,4.40
2023-05-09T01:36:14.875Z,4.50
2023-05-09T01:37:14.860Z,4.20
2023-05-09T01:38:14.850Z,6.10
2023-05-09T01:39:14.857Z,5.90
2023-05-09T01:40:14.834Z,5.10
2023-05-09T01:41:14.825Z,4.00
2023-05-09T01:42:14.817Z,4.00
2023-05-09T01:43:14.810Z,4.70
2023-05-09T01:44:14.941Z,4.90
2023-05-09T01:45:15.079Z,5.70
2023-05-09T01:46:14.824Z,4.40
2023-05-09T01:47:14.773Z,6.10
2023-05-09T01:48:14.762Z,4.50
2023-05-09T01:49:14.764Z,4.80
2023-05-09T01:50:14.745Z,4.30
2023-05-09T01:51:14.776Z,4.30
2023-05-09T01:52:14.731Z,4.60
2023-05-09T01:53:14.717Z,4.40
2023-05-09T01:54:14.711Z,3.80
2023-05-09T01:55:14.956Z,5.50
2023-05-09T01:56:14.692Z,5.00
2023-05-09T01:57:14.684Z,3.80
2023-05-09T01:58:14.675Z,4.20
2023-05-09T01:59:14.666Z,5.00
2023-05-09T02:00:14.750Z,5.20
2023-05-09T02:01:14.688Z,5.70
2023-05-09T02:02:14.715Z,4.10
2023-05-09T02:03:14.672Z,5.00
2023-05-09T02:04:14.622Z,3.70
2023-05-09T02:05:14.802Z,4.10
2023-05-09T02:06:14.604Z,4.00
2023-05-09T02:07:14.596Z,3.80
2023-05-09T02:08:14.589Z,5.70
2023-05-09T02:09:14.578Z,5.30
2023-05-09T02:10:14.580Z,4.80
2023-05-09T02:11:14.588Z,5.00
2023-05-09T02:12:14.577Z,4.40
2023-05-09T02:13:14.617Z,3.60
2023-05-09T02:14:14.536Z,5.40
2023-05-09T02:15:14.748Z,3.50
2023-05-09T02:16:14.641Z,5.50
2023-05-09T02:17:14.516Z,4.60
2023-05-09T02:18:14.502Z,3.80
2023-05-09T02:19:14.487Z,4.70
2023-05-09T02:20:14.479Z,4.80
2023-05-09T02:21:14.576Z,6.60
2023-05-09T02:22:14.462Z,4.00
2023-05-09T02:23:14.453Z,3.40
2023-05-09T02:24:14.445Z,4.50
2023-05-09T02:25:14.631Z,4.30
2023-05-09T02:26:14.476Z,3.40
2023-05-09T02:27:14.429Z,3.30
2023-05-09T02:28:14.405Z,3.90
2023-05-09T02:29:14.400Z,4.10
2023-05-09T02:30:14.391Z,3.40
2023-05-09T02:31:14.414Z,5.40
2023-05-09T02:32:14.470Z,3.60
2023-05-09T02:33:14.377Z,3.70
2023-05-09T02:34:14.353Z,4.90
2023-05-09T02:35:14.515Z,3.70
2023-05-09T02:36:14.340Z,5.20
2023-05-09T02:37:14.330Z,3.30
2023-05-09T02:38:14.338Z,4.00
2023-05-09T02:39:14.311Z,4.10
2023-05-09T02:40:14.303Z,3.30
2023-05-09T02:41:14.297Z,3.70
2023-05-09T02:42:14.290Z,6.80
2023-05-09T02:43:14.271Z,3.60
2023-05-09T02:44:14.266Z,4.70
2023-05-09T02:45:14.449Z,4.70
2023-05-09T02:46:14.262Z,4.60
2023-05-09T02:47:14.236Z,4.50
2023-05-09T02:48:14.331Z,3.00
2023-05-09T02:49:26.766Z,4.10
2023-05-09T02:50:14.218Z,4.10
2023-05-09T02:51:14.217Z,4.30
2023-05-09T02:52:14.195Z,5.20
2023-05-09T02:53:14.185Z,4.30
2023-05-09T02:54:14.176Z,4.00
2023-05-09T02:55:14.388Z,4.10
2023-05-09T02:56:14.155Z,4.20
2023-05-09T02:57:14.152Z,4.50
2023-05-09T02:58:15.146Z,4.10
2023-05-09T02:59:14.269Z,5.20
2023-05-09T03:00:14.124Z,4.60
2023-05-09T03:01:14.152Z,5.20
2023-05-09T03:02:14.104Z,4.20
2023-05-09T03:03:14.194Z,4.60
2023-05-09T03:04:14.184Z,4.30
2023-05-09T03:05:14.232Z,4.70
2023-05-09T03:06:14.067Z,4.80
2023-05-09T03:07:14.057Z,3.70
2023-05-09T03:08:14.048Z,4.60
2023-05-09T03:09:14.040Z,3.90
2023-05-09T03:10:14.054Z,4.10
2023-05-09T03:11:14.025Z,3.90
2023-05-09T03:12:14.022Z,3.80
2023-05-09T03:13:14.010Z,3.30
2023-05-09T03:14:13.995Z,3.30
2023-05-09T03:15:14.277Z,4.80
2023-05-09T03:16:13.995Z,4.60
2023-05-09T03:17:13.971Z,4.90
2023-05-09T03:18:13.952Z,4.60
2023-05-09T03:19:13.949Z,4.10
2023-05-09T03:20:14.027Z,5.00
2023-05-09T03:21:13.934Z,7.00
2023-05-09T03:22:13.922Z,4.10
2023-05-09T03:23:13.916Z,4.20
2023-05-09T03:24:13.916Z,3.70
2023-05-09T03:25:14.095Z,4.60
2023-05-09T03:26:13.889Z,2.90
2023-05-09T03:27:13.877Z,4.70
2023-05-09T03:28:13.868Z,3.50
2023-05-09T03:29:13.862Z,4.50
2023-05-09T03:30:13.938Z,4.20
2023-05-09T03:31:13.878Z,3.40
2023-05-09T03:32:15.120Z,4.40
2023-05-09T03:33:13.826Z,4.40
2023-05-09T03:34:13.819Z,6.00
2023-05-09T03:35:13.939Z,5.50
2023-05-09T03:36:13.882Z,4.30
2023-05-09T03:37:13.789Z,4.90
2023-05-09T03:38:13.780Z,4.30
2023-05-09T03:39:13.769Z,4.20
2023-05-09T03:40:13.763Z,3.90
2023-05-09T03:41:13.752Z,3.90
2023-05-09T03:42:13.739Z,4.30
2023-05-09T03:43:13.739Z,3.10
2023-05-09T03:44:13.728Z,4.20
2023-05-09T03:45:13.963Z,3.90
2023-05-09T03:46:13.745Z,5.40
2023-05-09T03:47:13.699Z,3.70
2023-05-09T03:48:13.732Z,4.50
2023-05-09T03:49:13.685Z,4.70
2023-05-09T03:50:13.674Z,5.40
2023-05-09T03:51:13.706Z,5.10
2023-05-09T03:52:13.735Z,5.80
2023-05-09T03:53:13.644Z,4.50
2023-05-09T03:54:13.637Z,5.60
2023-05-09T03:55:13.799Z,4.30
2023-05-09T03:56:13.614Z,4.70
2023-05-09T03:57:13.606Z,3.20
2023-05-09T03:58:13.600Z,5.70
2023-05-09T03:59:13.590Z,3.40
2023-05-09T04:00:13.577Z,4.70
2023-05-09T04:01:13.572Z,3.90
2023-05-09T04:02:13.622Z,3.70
2023-05-09T04:03:13.607Z,3.80
2023-05-09T04:04:13.737Z,3.80
2023-05-09T04:05:13.776Z,4.70
2023-05-09T04:06:13.538Z,3.50
2023-05-09T04:07:13.528Z,5.30
2023-05-09T04:08:13.594Z,4.40
2023-05-09T04:09:13.504Z,4.90
2023-05-09T04:10:13.504Z,4.00
2023-05-09T04:11:13.488Z,3.50
2023-05-09T04:12:13.476Z,4.50
2023-05-09T04:13:13.547Z,3.90
2023-05-09T04:14:13.456Z,6.10
2023-05-09T04:15:13.904Z,4.10
2023-05-09T04:16:13.541Z,4.90
2023-05-09T04:17:13.431Z,5.90
2023-05-09T04:18:13.422Z,4.10
2023-05-09T04:19:13.416Z,4.90
2023-05-09T04:20:13.420Z,3.40
2023-05-09T04:21:13.403Z,4.30
2023-05-09T04:22:13.386Z,5.00
2023-05-09T04:23:13.384Z,5.80
2023-05-09T04:24:13.369Z,3.80
2023-05-09T04:25:13.565Z,3.70
2023-05-09T04:26:13.353Z,4.90
2023-05-09T04:27:13.337Z,4.60
2023-05-09T04:28:13.367Z,4.50
2023-05-09T04:29:13.330Z,3.80
2023-05-09T04:30:13.317Z,3.80
2023-05-09T04:31:13.369Z,6.00
2023-05-09T04:32:13.354Z,5.00
2023-05-09T04:33:13.298Z,5.20
2023-05-09T04:34:13.281Z,4.40
2023-05-09T04:35:13.616Z,4.80
2023-05-09T04:36:13.274Z,8.70
2023-05-09T04:37:13.267Z,7.40
2023-05-09T04:38:13.247Z,7.60
2023-05-09T04:39:13.253Z,7.20
2023-05-09T04:40:13.313Z,7.80
2023-05-09T04:41:13.227Z,8.90
2023-05-09T04:42:13.231Z,8.50
2023-05-09T04:43:13.209Z,9.30
2023-05-09T04:44:13.199Z,9.60
2023-05-09T04:45:13.303Z,9.90
2023-05-09T04:46:13.190Z,12.60
2023-05-09T04:47:13.176Z,10.00
2023-05-09T04:48:13.175Z,10.40
2023-05-09T04:49:13.165Z,11.10
2023-05-09T04:50:13.157Z,10.70
2023-05-09T04:51:13.149Z,10.70
2023-05-09T04:52:13.142Z,10.70
2023-05-09T04:53:13.131Z,10.70
2023-05-09T04:54:13.132Z,11.80
2023-05-09T04:55:13.266Z,11.50
2023-05-09T04:56:13.193Z,11.60
2023-05-09T04:57:17.916Z,12.30
2023-05-09T04:58:13.204Z,11.60
2023-05-09T04:59:13.093Z,11.30
2023-05-09T05:00:13.111Z,11.40
2023-05-09T05:01:13.126Z,12.90
2023-05-09T05:02:13.132Z,12.10
2023-05-09T05:03:13.084Z,12.90
2023-05-09T05:04:13.093Z,12.20
2023-05-09T05:05:13.075Z,14.00
2023-05-09T05:06:13.056Z,15.40
2023-05-09T05:07:13.046Z,1999.90
2023-05-09T05:08:13.040Z,1999.90
2023-05-09T05:09:13.028Z,1999.90
2023-05-09T05:10:13.021Z,1999.90
2023-05-09T05:11:13.012Z,1999.90
2023-05-09T05:12:13.266Z,1999.90
2023-05-09T05:13:13.051Z,1999.90
2023-05-09T05:14:12.993Z,1999.90
2023-05-09T05:15:13.131Z,1999.90
2023-05-09T05:16:13.016Z,1999.90
2023-05-09T05:17:12.979Z,1999.90
2023-05-09T05:18:12.980Z,1999.90
2023-05-09T05:19:12.971Z,1999.90
2023-05-09T05:20:12.985Z,1999.90
2023-05-09T05:21:12.956Z,1999.90
2023-05-09T05:22:12.949Z,1999.90
2023-05-09T05:23:12.947Z,15.00
2023-05-09T05:24:12.938Z,15.20
2023-05-09T05:25:13.144Z,14.90
2023-05-09T05:26:12.930Z,13.70
2023-05-09T05:27:12.951Z,14.20
2023-05-09T05:28:13.004Z,14.90
2023-05-09T05:29:12.919Z,14.80
2023-05-09T05:30:12.909Z,14.60
2023-05-09T05:31:12.919Z,16.50
2023-05-09T05:32:12.899Z,1999.90
2023-05-09T05:33:12.896Z,1999.90
2023-05-09T05:34:12.888Z,1999.90
2023-05-09T05:35:13.095Z,1999.90
2023-05-09T05:36:12.879Z,1999.90
2023-05-09T05:37:12.885Z,1999.90
2023-05-09T05:38:12.870Z,1999.90
2023-05-09T05:39:12.862Z,1999.90
2023-05-09T05:40:12.883Z,1999.90
2023-05-09T05:41:12.862Z,1999.90
2023-05-09T05:42:12.854Z,1999.90
2023-05-09T05:43:12.850Z,1999.90
2023-05-09T05:44:12.935Z,1999.90
2023-05-09T05:45:12.965Z,1999.90
2023-05-09T05:46:12.922Z,1999.90
2023-05-09T05:47:12.837Z,1999.90
2023-05-09T05:48:12.838Z,1999.90
2023-05-09T05:49:12.820Z,1999.90
2023-05-09T05:50:12.833Z,1999.90
2023-05-09T05:51:12.813Z,1999.90
2023-05-09T05:52:12.807Z,1999.90
2023-05-09T05:53:12.818Z,1999.90
2023-05-09T05:54:12.812Z,1999.90
2023-05-09T05:55:13.027Z,1999.90
2023-05-09T05:56:12.798Z,1999.90
2023-05-09T05:57:12.792Z,1999.90
2023-05-09T05:58:12.791Z,1999.90
2023-05-09T05:59:13.594Z,1999.90
2023-05-09T06:00:12.880Z,1999.90
2023-05-09T06:01:12.777Z,1999.90
2023-05-09T06:02:12.830Z,1999.90
2023-05-09T06:03:12.839Z,1999.90
2023-05-09T06:04:12.814Z,1999.90
2023-05-09T06:05:12.932Z,1999.90
2023-05-09T06:06:12.768Z,1999.90
2023-05-09T06:07:12.765Z,1999.90
2023-05-09T06:08:12.757Z,1999.90
2023-05-09T06:09:12.753Z,1999.90
2023-05-09T06:10:12.777Z,16.40
2023-05-09T06:11:12.761Z,16.20
2023-05-09T06:12:12.756Z,17.40
2023-05-09T06:13:12.761Z,14.60
2023-05-09T06:14:12.751Z,15.50
2023-05-09T06:15:13.109Z,16.00
2023-05-09T06:16:19.235Z,14.40
2023-05-09T06:17:12.803Z,14.30
2023-05-09T06:18:12.774Z,14.60
2023-05-09T06:19:12.728Z,14.90
2023-05-09T06:20:12.725Z,15.00
2023-05-09T06:21:12.737Z,15.50
2023-05-09T06:22:12.723Z,16.80
2023-05-09T06:23:12.723Z,14.70
2023-05-09T06:24:23.427Z,13.80
2023-05-09T06:25:12.970Z,13.80
2023-05-09T06:26:12.715Z,14.50
2023-05-09T06:27:12.711Z,13.60
2023-05-09T06:28:12.718Z,15.70
2023-05-09T06:29:12.707Z,12.80
2023-05-09T06:30:24.509Z,12.40
2023-05-09T06:31:12.719Z,14.40
2023-05-09T06:32:12.789Z,13.20
2023-05-09T06:33:12.703Z,14.10
2023-05-09T06:34:12.709Z,12.10
2023-05-09T06:35:12.843Z,12.00
2023-05-09T06:36:12.701Z,13.30
2023-05-09T06:37:12.700Z,11.90
2023-05-09T06:38:12.698Z,11.70
2023-05-09T06:39:12.693Z,13.40
2023-05-09T06:40:12.697Z,11.10
2023-05-09T06:41:12.694Z,11.40
2023-05-09T06:42:12.692Z,10.80
2023-05-09T06:43:12.689Z,9.80
2023-05-09T06:44:12.699Z,9.20
2023-05-09T06:45:12.877Z,8.00
2023-05-09T06:46:12.739Z,7.60
2023-05-09T06:47:12.685Z,8.50
2023-05-09T06:48:12.767Z,10.50
2023-05-09T06:49:12.692Z,6.10
2023-05-09T06:50:12.684Z,6.50
2023-05-09T06:51:12.682Z,7.90
2023-05-09T06:52:12.678Z,5.90
2023-05-09T06:53:12.679Z,6.00
2023-05-09T06:54:12.682Z,5.80
2023-05-09T06:55:12.747Z,5.20
2023-05-09T06:56:12.682Z,7.20
2023-05-09T06:57:12.678Z,5.70
2023-05-09T06:58:12.681Z,4.60
2023-05-09T06:59:12.671Z,6.30
2023-05-09T07:00:12.686Z,4.60
2023-05-09T07:01:12.697Z,6.20
2023-05-09T07:02:12.675Z,4.40
2023-05-09T07:03:12.686Z,5.10
2023-05-09T07:04:12.779Z,4.20
2023-05-09T07:05:12.810Z,4.80
2023-05-09T07:06:12.665Z,5.60
2023-05-09T07:07:12.749Z,5.30
2023-05-09T07:08:12.669Z,3.80
2023-05-09T07:09:12.668Z,3.50
2023-05-09T07:10:12.666Z,6.10
2023-05-09T07:11:12.742Z,7.40
2023-05-09T07:12:12.672Z,5.90
2023-05-09T07:13:12.694Z,5.30
2023-05-09T07:14:12.678Z,5.40
2023-05-09T07:15:12.784Z,3.90
2023-05-09T07:16:12.701Z,4.70
2023-05-09T07:17:22.828Z,7.00
2023-05-09T07:18:12.770Z,6.20
2023-05-09T07:19:12.667Z,7.30
2023-05-09T07:20:12.751Z,6.80
2023-05-09T07:21:12.674Z,8.20
2023-05-09T07:22:12.753Z,5.30
2023-05-09T07:23:12.668Z,4.70
2023-05-09T07:24:12.665Z,5.50
2023-05-09T07:25:12.766Z,8.20
2023-05-09T07:26:12.666Z,6.30
2023-05-09T07:27:12.685Z,7.70
2023-05-09T07:28:12.691Z,5.40
2023-05-09T07:29:12.668Z,5.10
2023-05-09T07:30:12.857Z,4.90
2023-05-09T07:31:12.716Z,4.00
2023-05-09T07:32:12.752Z,4.70
2023-05-09T07:33:12.744Z,6.10
2023-05-09T07:34:12.666Z,5.00
2023-05-09T07:35:12.935Z,7.00
2023-05-09T07:36:13.044Z,5.50
2023-05-09T07:37:13.749Z,7.50
2023-05-09T07:38:12.669Z,4.30
2023-05-09T07:39:12.666Z,6.00
2023-05-09T07:40:12.794Z,4.80
2023-05-09T07:41:12.667Z,5.80
2023-05-09T07:42:12.674Z,4.40
2023-05-09T07:43:12.680Z,7.00
2023-05-09T07:44:12.679Z,5.00
2023-05-09T07:45:12.796Z,6.60
2023-05-09T07:46:12.706Z,6.00
2023-05-09T07:47:12.669Z,6.70
2023-05-09T07:48:12.696Z,4.70
2023-05-09T07:49:12.678Z,5.90
2023-05-09T07:50:12.675Z,5.70
2023-05-09T07:51:12.674Z,6.90
2023-05-09T07:52:12.753Z,4.80
2023-05-09T07:53:12.675Z,6.80
2023-05-09T07:54:12.681Z,4.20
2023-05-09T07:55:12.721Z,5.40
2023-05-09T07:56:12.677Z,5.20
2023-05-09T07:57:12.691Z,4.60
2023-05-09T07:58:12.681Z,4.10
2023-05-09T07:59:12.703Z,5.00
2023-05-09T08:00:12.681Z,5.70
2023-05-09T08:01:12.689Z,4.10
2023-05-09T08:02:12.708Z,5.40
2023-05-09T08:03:12.772Z,5.20
2023-05-09T08:04:12.998Z,6.40
2023-05-09T08:05:12.819Z,4.60
2023-05-09T08:06:12.702Z,5.50
2023-05-09T08:07:12.700Z,4.30
2023-05-09T08:08:12.780Z,5.30
2023-05-09T08:09:12.735Z,5.60
2023-05-09T08:10:12.708Z,6.50
2023-05-09T08:11:12.700Z,4.30
2023-05-09T08:12:12.706Z,5.50
2023-05-09T08:13:12.750Z,4.80
2023-05-09T08:14:13.193Z,3.90
2023-05-09T08:15:12.905Z,5.30
2023-05-09T08:16:12.759Z,4.40
2023-05-09T08:17:12.718Z,5.60
2023-05-09T08:18:12.717Z,5.90
2023-05-09T08:19:12.760Z,5.00
2023-05-09T08:20:12.717Z,5.00
2023-05-09T08:21:12.718Z,4.60
2023-05-09T08:22:12.725Z,6.70
2023-05-09T08:23:12.719Z,5.30
2023-05-09T08:24:12.815Z,5.30
2023-05-09T08:25:12.886Z,5.70
2023-05-09T08:26:12.717Z,4.50
2023-05-09T08:27:12.723Z,3.70
2023-05-09T08:28:12.720Z,4.30
2023-05-09T08:29:12.730Z,4.10
2023-05-09T08:30:12.721Z,5.70
2023-05-09T08:31:12.775Z,5.30
2023-05-09T08:32:12.714Z,4.30
2023-05-09T08:33:12.779Z,5.40
2023-05-09T08:34:12.719Z,4.10
2023-05-09T08:35:12.930Z,4.20
2023-05-09T08:36:12.717Z,4.40
2023-05-09T08:37:15.072Z,4.30
2023-05-09T08:38:12.707Z,5.30
2023-05-09T08:39:12.702Z,3.90
2023-05-09T08:40:12.994Z,3.10
2023-05-09T08:41:12.700Z,3.70
2023-05-09T08:42:12.702Z,3.00
2023-05-09T08:43:12.700Z,4.40
2023-05-09T08:44:12.701Z,4.10
2023-05-09T08:45:12.687Z,3.20
2023-05-09T08:46:12.725Z,3.70
2023-05-09T08:47:12.682Z,4.90
2023-05-09T08:48:12.758Z,3.10
2023-05-09T08:49:12.731Z,3.20
2023-05-09T08:50:12.743Z,4.70
2023-05-09T08:51:12.668Z,5.00
2023-05-09T08:52:12.665Z,3.30
2023-05-09T08:53:12.665Z,5.10
2023-05-09T08:54:12.665Z,4.50
2023-05-09T08:55:12.710Z,3.00
2023-05-09T08:56:12.787Z,3.30
2023-05-09T08:57:12.657Z,4.10
2023-05-09T08:58:12.652Z,4.70
2023-05-09T08:59:12.683Z,5.60
2023-05-09T09:00:12.695Z,5.70
2023-05-09T09:01:12.681Z,4.60
2023-05-09T09:02:12.756Z,3.90
2023-05-09T09:03:12.686Z,4.60
2023-05-09T09:04:12.651Z,5.60
2023-05-09T09:05:23.988Z,4.90
2023-05-09T09:06:12.640Z,4.00
2023-05-09T09:07:12.636Z,5.00
2023-05-09T09:08:12.644Z,2.80
2023-05-09T09:09:12.635Z,5.50
2023-05-09T09:10:12.854Z,5.10
2023-05-09T09:11:12.633Z,6.40
2023-05-09T09:12:12.726Z,5.60
2023-05-09T09:13:12.703Z,6.10
2023-05-09T09:14:12.619Z,4.00
2023-05-09T09:15:12.615Z,5.60
2023-05-09T09:16:12.627Z,5.90
2023-05-09T09:17:12.614Z,5.70
2023-05-09T09:18:12.667Z,4.80
2023-05-09T09:19:12.623Z,5.10
2023-05-09T09:20:12.744Z,5.90
2023-05-09T09:21:12.602Z,5.20
2023-05-09T09:22:12.595Z,5.40
2023-05-09T09:23:12.592Z,2.80
2023-05-09T09:24:12.592Z,3.00
2023-05-09T09:25:12.585Z,4.30
2023-05-09T09:26:12.585Z,4.00
2023-05-09T09:27:12.582Z,7.10
2023-05-09T09:28:12.678Z,3.50
2023-05-09T09:29:12.572Z,5.20
2023-05-09T09:30:12.645Z,4.00
2023-05-09T09:31:12.577Z,5.00
2023-05-09T09:32:12.681Z,5.40
2023-05-09T09:33:12.655Z,6.80
2023-05-09T09:34:12.551Z,5.00
2023-05-09T09:35:12.552Z,3.50
2023-05-09T09:36:12.551Z,3.80
2023-05-09T09:37:12.537Z,5.10
2023-05-09T09:38:12.535Z,4.70
2023-05-09T09:39:12.528Z,4.20
2023-05-09T09:40:12.678Z,4.60
2023-05-09T09:41:12.531Z,4.60
2023-05-09T09:42:12.518Z,6.90
2023-05-09T09:43:12.518Z,4.90
2023-05-09T09:44:12.602Z,5.00
2023-05-09T09:45:12.504Z,5.10
2023-05-09T09:46:12.555Z,4.70
2023-05-09T09:47:12.503Z,4.20
2023-05-09T09:48:12.567Z,5.40
2023-05-09T09:49:12.490Z,5.80
2023-05-09T09:50:12.580Z,4.20
2023-05-09T09:51:12.485Z,5.10
2023-05-09T09:52:12.480Z,3.80
2023-05-09T09:53:12.473Z,7.60
2023-05-09T09:54:12.471Z,5.10
2023-05-09T09:55:12.458Z,5.50
2023-05-09T09:56:12.465Z,4.60
2023-05-09T09:57:12.456Z,4.60
2023-05-09T09:58:12.459Z,2.90
2023-05-09T09:59:12.458Z,4.70
2023-05-09T10:00:12.693Z,5.10
2023-05-09T10:01:12.479Z,4.60
2023-05-09T10:02:12.442Z,5.80
2023-05-09T10:03:12.595Z,4.70
2023-05-09T10:04:12.499Z,4.00
2023-05-09T10:05:12.435Z,4.10
2023-05-09T10:06:12.454Z,3.50
2023-05-09T10:07:14.933Z,4.70
2023-05-09T10:08:12.403Z,4.30
2023-05-09T10:09:12.399Z,4.80
2023-05-09T10:10:12.442Z,4.90
2023-05-09T10:11:12.393Z,5.20
2023-05-09T10:12:12.396Z,4.80
2023-05-09T10:13:12.493Z,5.00
2023-05-09T10:14:12.378Z,5.00
2023-05-09T10:15:12.415Z,5.20
2023-05-09T10:16:12.548Z,3.60
2023-05-09T10:17:12.462Z,3.50
2023-05-09T10:18:12.473Z,3.60
2023-05-09T10:19:12.369Z,5.80
2023-05-09T10:20:12.541Z,3.90
2023-05-09T10:21:12.356Z,4.00
2023-05-09T10:22:12.357Z,4.40
2023-05-09T10:23:12.347Z,6.20
2023-05-09T10:24:12.361Z,4.90
2023-05-09T10:25:12.360Z,4.20
2023-05-09T10:26:12.318Z,4.30
2023-05-09T10:27:12.334Z,4.70
2023-05-09T10:28:12.320Z,3.90
2023-05-09T10:29:12.316Z,6.20
2023-05-09T10:30:12.308Z,4.90
2023-05-09T10:31:12.326Z,5.40
2023-05-09T10:32:12.386Z,3.90
2023-05-09T10:33:12.382Z,3.40
2023-05-09T10:34:12.289Z,3.80
2023-05-09T10:35:12.433Z,3.90
2023-05-09T10:36:12.281Z,3.90
2023-05-09T10:37:12.273Z,4.80
2023-05-09T10:38:12.274Z,3.70
2023-05-09T10:39:12.269Z,3.20
2023-05-09T10:40:12.269Z,3.70
2023-05-09T10:41:12.268Z,5.50
2023-05-09T10:42:12.259Z,5.90
2023-05-09T10:43:12.258Z,5.40
2023-05-09T10:44:12.247Z,4.90
2023-05-09T10:45:12.257Z,4.30
2023-05-09T10:46:12.302Z,4.50
2023-05-09T10:47:12.240Z,5.20
2023-05-09T10:48:12.318Z,4.40
2023-05-09T10:49:12.231Z,4.60
2023-05-09T10:50:12.223Z,6.10
2023-05-09T10:51:12.218Z,4.20
2023-05-09T10:52:12.214Z,4.00
2023-05-09T10:53:12.211Z,3.60
2023-05-09T10:54:12.208Z,5.20
2023-05-09T10:55:12.228Z,4.80
2023-05-09T10:56:12.202Z,4.50
2023-05-09T10:57:12.194Z,5.10
2023-05-09T10:58:12.191Z,2.90
2023-05-09T10:59:12.188Z,5.30
2023-05-09T11:00:12.190Z,6.20
2023-05-09T11:01:12.203Z,5.00
2023-05-09T11:02:12.175Z,5.70
2023-05-09T11:03:12.270Z,4.00
2023-05-09T11:04:12.254Z,6.50
2023-05-09T11:05:12.264Z,4.40
2023-05-09T11:06:12.156Z,7.20
2023-05-09T11:07:12.156Z,4.50
2023-05-09T11:08:12.158Z,4.00
2023-05-09T11:09:12.156Z,5.00
2023-05-09T11:10:12.146Z,5.20
2023-05-09T11:11:12.142Z,5.00
2023-05-09T11:12:12.155Z,4.20
2023-05-09T11:13:12.198Z,4.70
2023-05-09T11:14:12.150Z,5.70
2023-05-09T11:15:12.174Z,4.80
2023-05-09T11:16:12.256Z,3.20
2023-05-09T11:17:12.121Z,6.30
2023-05-09T11:18:12.140Z,3.50
2023-05-09T11:19:12.114Z,3.70
2023-05-09T11:20:12.204Z,5.10
2023-05-09T11:21:12.106Z,6.00
2023-05-09T11:22:12.106Z,6.10
2023-05-09T11:23:12.156Z,5.90
2023-05-09T11:24:12.098Z,4.10
2023-05-09T11:25:12.201Z,4.90
2023-05-09T11:26:12.091Z,3.90
2023-05-09T11:27:12.087Z,4.80
2023-05-09T11:28:12.116Z,4.20
2023-05-09T11:29:12.082Z,3.90
2023-05-09T11:30:12.080Z,3.60
2023-05-09T11:31:12.095Z,3.70
2023-05-09T11:32:12.161Z,2.50
2023-05-09T11:33:12.092Z,4.30
2023-05-09T11:34:12.061Z,4.60
2023-05-09T11:35:12.239Z,3.60
2023-05-09T11:36:12.157Z,4.30
2023-05-09T11:37:12.052Z,4.10
2023-05-09T11:38:12.056Z,3.90
2023-05-09T11:39:12.057Z,5.80
2023-05-09T11:40:12.070Z,3.70
2023-05-09T11:41:12.042Z,6.70
2023-05-09T11:42:12.036Z,3.90
2023-05-09T11:43:12.035Z,3.80
2023-05-09T11:44:12.031Z,5.00
2023-05-09T11:45:12.167Z,2.90
2023-05-09T11:46:12.054Z,3.80
2023-05-09T11:47:12.018Z,5.90
2023-05-09T11:48:12.014Z,5.80
2023-05-09T11:49:12.422Z,4.00
2023-05-09T11:50:12.018Z,3.90
2023-05-09T11:51:12.000Z,4.00
2023-05-09T11:52:12.089Z,5.90
2023-05-09T11:53:11.994Z,5.60
2023-05-09T11:54:11.998Z,5.40
2023-05-09T11:55:12.844Z,5.00
2023-05-09T11:56:11.988Z,6.00
2023-05-09T11:57:11.978Z,5.10
2023-05-09T11:58:11.975Z,5.40
2023-05-09T11:59:11.971Z,2.70
2023-05-09T12:00:11.971Z,4.10
2023-05-09T12:01:12.369Z,5.90
2023-05-09T12:02:12.003Z,6.20
2023-05-09T12:03:12.077Z,7.00
2023-05-09T12:04:11.985Z,3.50
2023-05-09T12:05:12.019Z,3.70
2023-05-09T12:06:11.949Z,3.80
2023-05-09T12:07:11.941Z,4.10
2023-05-09T12:08:12.054Z,3.30
2023-05-09T12:09:11.969Z,4.30
2023-05-09T12:10:11.935Z,2.60
2023-05-09T12:11:11.930Z,5.00
2023-05-09T12:12:11.927Z,3.80
2023-05-09T12:13:12.022Z,3.50
2023-05-09T12:14:11.921Z,5.20
2023-05-09T12:15:11.921Z,4.40
2023-05-09T12:16:11.923Z,4.80
2023-05-09T12:17:11.910Z,4.30
2023-05-09T12:18:11.928Z,4.20
2023-05-09T12:19:11.908Z,3.90
2023-05-09T12:20:11.904Z,4.60
2023-05-09T12:21:11.898Z,4.40
2023-05-09T12:22:11.903Z,5.50
2023-05-09T12:23:11.897Z,6.30
2023-05-09T12:24:11.967Z,4.80
2023-05-09T12:25:11.957Z,4.50
2023-05-09T12:26:11.886Z,5.40
2023-05-09T12:27:11.879Z,6.00
2023-05-09T12:28:11.873Z,5.80
2023-05-09T12:29:11.870Z,4.10
2023-05-09T12:30:11.872Z,5.40
2023-05-09T12:31:11.908Z,4.30
2023-05-09T12:32:11.871Z,3.60
2023-05-09T12:33:11.862Z,3.70
2023-05-09T12:34:11.853Z,5.20
2023-05-09T12:35:11.860Z,4.60
2023-05-09T12:36:11.860Z,3.70
2023-05-09T12:37:11.848Z,4.10
2023-05-09T12:38:11.839Z,5.30
2023-05-09T12:39:11.835Z,4.20
2023-05-09T12:40:12.022Z,4.60
2023-05-09T12:41:22.454Z,3.90
2023-05-09T12:42:11.831Z,3.40
2023-05-09T12:43:11.822Z,3.80
2023-05-09T12:44:11.818Z,5.40
2023-05-09T12:45:11.846Z,6.90
2023-05-09T12:46:11.814Z,5.40
2023-05-09T12:47:11.861Z,5.90
2023-05-09T12:48:11.863Z,4.00
2023-05-09T12:49:11.802Z,3.80
2023-05-09T12:50:11.797Z,3.90
2023-05-09T12:51:11.802Z,3.80
2023-05-09T12:52:11.793Z,6.00
2023-05-09T12:53:11.788Z,4.20
2023-05-09T12:54:11.788Z,5.70
2023-05-09T12:55:11.817Z,4.70
2023-05-09T12:56:11.876Z,3.90
2023-05-09T12:57:11.778Z,7.50
2023-05-09T12:58:11.772Z,6.60
2023-05-09T12:59:11.776Z,6.80
2023-05-09T13:00:11.766Z,5.70
2023-05-09T13:01:11.790Z,6.30
2023-05-09T13:02:11.790Z,4.40
2023-05-09T13:03:11.792Z,4.40
2023-05-09T13:04:12.788Z,5.10
2023-05-09T13:05:11.769Z,6.10
2023-05-09T13:06:11.756Z,6.60
2023-05-09T13:07:11.749Z,4.80
2023-05-09T13:08:11.740Z,3.80
2023-05-09T13:09:11.738Z,4.60
2023-05-09T13:10:12.654Z,6.70